KMWM/MWM METAR and TAF weather

Enter ICAO airport designator
Station Type Date Time Source
KMWM METAR 2019/02/16 01:56 UTC NOAA

KMWM 160156Z AUTO 30007KT 10SM CLR M18/M20 A3012 RMK AO2


Station Type Date Time Source
KMWM Decoded METAR 2019/02/16 01:56 UTC NOAA

Windom, Windom Municipal Airport, MN, United States (KMWM) 43-54-48N 095-06-34W
Feb 15, 2019 - 08:56 PM EST / 2019.02.16 0156 UTC
Wind: from the WNW (300 degrees) at 8 MPH (7 KT):0
Visibility: 10 mile(s):0
Sky conditions: clear
Temperature: 0 F (-18 C)
Windchill: -14 F (-26 C):2
Dew Point: -4 F (-20 C)
Relative Humidity: 84%
Pressure (altimeter): 30.12 in. Hg (1019 hPa)
ob: KMWM 160156Z AUTO 30007KT 10SM CLR M18/M20 A3012 RMK AO2
cycle: 2

Station Type Date Time Source
KMWM TAF UTC NOAA

Error!


Example: see airport list